createdAt,value
2022-11-24T00:01:15.352Z,95.18
2022-11-24T00:03:43.988Z,95.36
2022-11-24T00:06:13.529Z,95.22
2022-11-24T00:08:44.491Z,95.29
2022-11-24T00:11:14.216Z,95.60
2022-11-24T00:13:42.475Z,95.56
2022-11-24T00:16:13.064Z,95.98
2022-11-24T00:18:42.117Z,95.53
2022-11-24T00:21:10.299Z,95.66
2022-11-24T00:23:38.711Z,95.16
2022-11-24T00:26:08.470Z,95.17
2022-11-24T00:28:37.570Z,95.24
2022-11-24T00:31:08.685Z,95.34
2022-11-24T00:33:40.788Z,95.50
2022-11-24T00:36:09.062Z,95.14
2022-11-24T00:38:37.188Z,94.86
2022-11-24T00:41:05.137Z,94.32
2022-11-24T00:43:33.681Z,94.10
2022-11-24T00:46:01.840Z,94.17
2022-11-24T00:48:30.826Z,93.95
2022-11-24T00:51:02.256Z,93.64
2022-11-24T00:53:30.913Z,92.83
2022-11-24T00:55:58.782Z,92.77
2022-11-24T00:58:27.474Z,92.41
2022-11-24T01:00:56.161Z,92.20
2022-11-24T01:03:24.333Z,92.37
2022-11-24T01:05:52.193Z,92.19
2022-11-24T01:08:21.664Z,92.06
2022-11-24T01:10:49.626Z,92.12
2022-11-24T01:13:17.760Z,91.93
2022-11-24T01:15:45.642Z,92.29
2022-11-24T01:18:13.765Z,92.34
2022-11-24T01:20:41.665Z,93.35
2022-11-24T01:23:10.139Z,92.58
2022-11-24T01:25:41.662Z,91.84
2022-11-24T01:28:09.767Z,92.12
2022-11-24T01:30:37.751Z,91.62
2022-11-24T01:33:06.035Z,91.99
2022-11-24T01:35:33.963Z,91.79
2022-11-24T01:38:02.109Z,91.78
2022-11-24T01:40:29.985Z,91.79
2022-11-24T01:42:59.506Z,92.05
2022-11-24T01:45:36.603Z,91.58
2022-11-24T01:48:06.907Z,91.83
2022-11-24T01:50:36.821Z,91.80
2022-11-24T01:53:05.743Z,91.71
2022-11-24T01:55:37.252Z,92.02
2022-11-24T01:58:09.322Z,92.13
2022-11-24T02:00:38.128Z,92.80
2022-11-24T02:03:06.681Z,93.07
2022-11-24T02:05:39.178Z,93.45
2022-11-24T02:08:10.616Z,93.13
2022-11-24T02:10:38.960Z,93.13
2022-11-24T02:13:08.518Z,92.98
2022-11-24T02:15:36.860Z,92.87
2022-11-24T02:18:05.681Z,92.40
2022-11-24T02:20:34.047Z,92.59
2022-11-24T02:23:04.902Z,92.68
2022-11-24T02:25:37.143Z,92.57
2022-11-24T02:28:08.875Z,92.92
2022-11-24T02:30:37.087Z,93.17
2022-11-24T02:33:05.329Z,93.23
2022-11-24T02:35:33.404Z,93.44
2022-11-24T02:38:01.701Z,93.40
2022-11-24T02:40:31.001Z,93.11
2022-11-24T02:43:02.457Z,93.15
2022-11-24T02:45:32.152Z,92.93
2022-11-24T02:48:00.493Z,92.86
2022-11-24T02:50:28.422Z,92.77
2022-11-24T02:52:56.592Z,92.76
2022-11-24T02:55:24.725Z,92.92
2022-11-24T02:57:53.008Z,93.17
2022-11-24T03:00:21.389Z,92.86
2022-11-24T03:02:51.505Z,92.89
2022-11-24T03:05:20.233Z,92.48
2022-11-24T03:07:48.441Z,92.28
2022-11-24T03:10:16.929Z,91.80
2022-11-24T03:12:45.058Z,91.50
2022-11-24T03:15:12.999Z,91.42
2022-11-24T03:17:41.330Z,91.45
2022-11-24T03:20:12.060Z,91.00
2022-11-24T03:22:40.216Z,91.09
2022-11-24T03:25:08.799Z,91.40
2022-11-24T03:27:37.051Z,91.45
2022-11-24T03:30:05.614Z,91.23
2022-11-24T03:32:33.918Z,90.73
2022-11-24T03:35:01.924Z,90.22
2022-11-24T03:37:31.538Z,89.86
2022-11-24T03:39:59.515Z,89.79
2022-11-24T03:42:27.743Z,89.88
2022-11-24T03:44:55.677Z,89.68
2022-11-24T03:47:23.798Z,89.74
2022-11-24T03:49:51.730Z,89.69
2022-11-24T03:52:19.869Z,89.70
2022-11-24T03:54:49.106Z,90.55
2022-11-24T03:57:17.229Z,91.15
2022-11-24T03:59:45.137Z,91.54
2022-11-24T04:02:13.347Z,91.71
2022-11-24T04:04:44.671Z,92.31
2022-11-24T04:07:15.254Z,92.26
2022-11-24T04:09:43.212Z,91.97
2022-11-24T04:12:38.496Z,92.11
2022-11-24T04:15:07.253Z,91.90
2022-11-24T04:17:35.601Z,91.60
2022-11-24T04:20:04.085Z,91.34
2022-11-24T04:22:32.393Z,91.53
2022-11-24T04:25:00.342Z,91.66
2022-11-24T04:27:30.271Z,91.70
2022-11-24T04:29:58.226Z,92.08
2022-11-24T04:32:26.518Z,91.62
2022-11-24T04:34:54.402Z,91.44
2022-11-24T04:37:22.555Z,91.28
2022-11-24T04:39:50.439Z,90.85
2022-11-24T04:42:18.677Z,91.14
2022-11-24T04:44:47.968Z,90.88
2022-11-24T04:47:17.104Z,90.60
2022-11-24T04:49:45.015Z,90.81
2022-11-24T04:52:13.211Z,90.88
2022-11-24T04:54:41.120Z,90.93
2022-11-24T04:57:10.648Z,90.54
2022-11-24T04:59:38.513Z,90.57
2022-11-24T05:02:08.087Z,90.19
2022-11-24T05:04:36.577Z,90.18
2022-11-24T05:07:05.330Z,90.08
2022-11-24T05:09:58.067Z,90.40
2022-11-24T05:12:21.580Z,90.26
2022-11-24T05:14:49.515Z,90.05
2022-11-24T05:17:19.561Z,89.69
2022-11-24T05:19:47.482Z,89.67
2022-11-24T05:22:15.671Z,89.75
2022-11-24T05:24:43.598Z,89.93
2022-11-24T05:27:12.350Z,89.98
2022-11-24T05:29:40.299Z,89.72
2022-11-24T05:32:08.559Z,89.54
2022-11-24T05:34:38.023Z,89.17
2022-11-24T05:37:06.507Z,89.20
2022-11-24T05:39:34.891Z,88.77
2022-11-24T05:42:24.502Z,88.67
2022-11-24T05:44:52.607Z,88.86
2022-11-24T05:47:20.925Z,88.70
2022-11-24T05:49:50.258Z,89.01
2022-11-24T05:52:18.407Z,89.23
2022-11-24T05:54:46.302Z,89.29
2022-11-24T05:57:14.532Z,89.22
2022-11-24T05:59:42.436Z,89.41
2022-11-24T06:02:10.869Z,89.36
2022-11-24T06:04:39.138Z,89.26
2022-11-24T06:07:10.858Z,89.37
2022-11-24T06:09:39.136Z,88.94
2022-11-24T06:12:08.142Z,89.04
2022-11-24T06:14:36.428Z,89.16
2022-11-24T06:17:06.643Z,89.52
2022-11-24T06:19:38.645Z,89.44
2022-11-24T06:22:11.096Z,89.62
2022-11-24T06:24:39.125Z,90.12
2022-11-24T06:27:07.631Z,90.65
2022-11-24T06:29:35.522Z,91.36
2022-11-24T06:32:03.834Z,92.08
2022-11-24T06:34:32.244Z,92.94
2022-11-24T06:37:00.927Z,92.75
2022-11-24T06:39:30.246Z,93.55
2022-11-24T06:41:58.563Z,93.62
2022-11-24T06:44:26.533Z,93.84
2022-11-24T06:46:54.953Z,93.80
2022-11-24T06:49:22.866Z,94.06
2022-11-24T06:51:51.034Z,94.61
2022-11-24T06:54:20.993Z,94.31
2022-11-24T06:56:50.770Z,94.76
2022-11-24T06:59:20.915Z,95.17
2022-11-24T07:01:49.171Z,95.33
2022-11-24T07:04:17.388Z,95.72
2022-11-24T07:06:45.605Z,95.47
2022-11-24T07:09:14.626Z,95.86
2022-11-24T07:11:43.509Z,95.60
2022-11-24T07:14:12.813Z,95.86
2022-11-24T07:16:41.394Z,95.88
2022-11-24T07:19:10.063Z,96.20
2022-11-24T07:21:38.268Z,96.07
2022-11-24T07:24:06.968Z,95.99
2022-11-24T07:26:37.159Z,96.00
2022-11-24T07:29:05.903Z,95.75
2022-11-24T07:31:35.430Z,95.75
2022-11-24T07:34:03.405Z,95.53
2022-11-24T07:36:32.248Z,95.82
2022-11-24T07:39:00.303Z,95.83
2022-11-24T07:41:28.490Z,96.04
2022-11-24T07:43:56.619Z,96.51
2022-11-24T07:46:24.949Z,96.25
2022-11-24T07:48:54.311Z,96.31
2022-11-24T07:51:22.599Z,96.06
2022-11-24T07:53:50.503Z,95.89
2022-11-24T07:56:18.701Z,96.17
2022-11-24T07:58:51.358Z,96.05
2022-11-24T08:01:21.213Z,95.88
2022-11-24T08:03:49.221Z,96.01
2022-11-24T08:06:26.125Z,95.82
2022-11-24T08:08:55.684Z,95.60
2022-11-24T08:11:24.076Z,95.52
2022-11-24T08:13:52.077Z,95.36
2022-11-24T08:16:20.936Z,95.30
2022-11-24T08:18:50.905Z,95.40
2022-11-24T08:21:20.969Z,95.07
2022-11-24T08:23:48.919Z,94.85
2022-11-24T08:26:19.197Z,94.75
2022-11-24T08:28:48.022Z,94.65
2022-11-24T08:31:19.504Z,94.65
2022-11-24T08:33:47.877Z,94.60
2022-11-24T08:36:18.475Z,94.48
2022-11-24T08:38:48.857Z,94.58
2022-11-24T08:41:18.229Z,94.70
2022-11-24T08:43:46.134Z,94.68
2022-11-24T08:46:17.081Z,94.52
2022-11-24T08:48:47.167Z,94.39
2022-11-24T08:51:18.799Z,93.82
2022-11-24T08:53:48.414Z,93.56
2022-11-24T08:56:16.567Z,93.29
2022-11-24T08:58:44.741Z,93.29
2022-11-24T09:01:14.528Z,93.17
2022-11-24T09:03:49.765Z,93.14
2022-11-24T09:06:19.743Z,93.28
2022-11-24T09:08:49.498Z,93.03
2022-11-24T09:11:17.920Z,92.69
2022-11-24T09:13:46.187Z,92.50
2022-11-24T09:16:16.496Z,92.78
2022-11-24T09:18:44.901Z,92.35
2022-11-24T09:21:14.749Z,90.94
2022-11-24T09:23:43.599Z,90.62
2022-11-24T09:26:14.446Z,89.83
2022-11-24T09:28:43.042Z,89.85
2022-11-24T09:31:12.745Z,89.08
2022-11-24T09:33:41.990Z,88.50
2022-11-24T09:36:10.684Z,88.49
2022-11-24T09:38:38.703Z,87.95
2022-11-24T09:41:25.257Z,88.24
2022-11-24T09:43:58.291Z,87.73
2022-11-24T09:46:31.464Z,87.75
2022-11-24T09:48:59.627Z,87.08
2022-11-24T09:51:29.478Z,86.63
2022-11-24T09:54:01.385Z,86.77
2022-11-24T09:56:34.390Z,86.37
2022-11-24T09:59:04.217Z,86.82
2022-11-24T10:01:34.356Z,85.54
2022-11-24T10:04:06.228Z,85.13
2022-11-24T10:06:40.485Z,85.21
2022-11-24T10:09:37.542Z,83.35
2022-11-24T10:12:17.372Z,83.84
2022-11-24T10:15:25.447Z,83.79
2022-11-24T10:18:16.951Z,84.15
2022-11-24T10:20:53.520Z,84.16
2022-11-24T10:23:33.530Z,84.67
2022-11-24T10:26:09.502Z,84.89
2022-11-24T10:28:42.971Z,85.47
2022-11-24T10:31:19.698Z,85.34
2022-11-24T10:33:48.865Z,85.13
2022-11-24T10:36:21.793Z,84.41
2022-11-24T10:38:55.206Z,84.16
2022-11-24T10:41:25.783Z,83.45
2022-11-24T10:43:58.616Z,82.59
2022-11-24T10:46:28.006Z,82.59
2022-11-24T10:48:59.341Z,81.50
2022-11-24T10:51:48.759Z,80.91
2022-11-24T10:54:18.584Z,78.88
2022-11-24T10:56:48.280Z,79.72
2022-11-24T10:59:31.969Z,78.68
2022-11-24T11:02:00.467Z,77.88
2022-11-24T11:04:30.221Z,77.46
2022-11-24T11:07:18.439Z,76.79
2022-11-24T11:09:47.644Z,76.15
2022-11-24T11:12:42.589Z,76.07
2022-11-24T11:15:25.273Z,75.54
2022-11-24T11:17:57.721Z,73.57
2022-11-24T11:20:29.842Z,70.43
2022-11-24T11:22:59.093Z,66.35
2022-11-24T11:25:31.666Z,63.19
2022-11-24T11:28:24.656Z,60.32
2022-11-24T11:31:19.710Z,58.86
2022-11-24T11:34:03.601Z,58.34
2022-11-24T11:36:33.730Z,57.36
2022-11-24T11:39:01.721Z,55.40
2022-11-24T11:41:34.712Z,53.81
2022-11-24T11:44:21.278Z,53.05
2022-11-24T11:46:50.843Z,50.43
2022-11-24T11:49:18.774Z,49.57
2022-11-24T11:52:09.514Z,48.23
2022-11-24T11:54:55.694Z,46.01
2022-11-24T11:57:31.469Z,46.02
2022-11-24T12:00:06.287Z,44.83
2022-11-24T12:03:02.070Z,43.49
2022-11-24T12:05:45.114Z,44.89
2022-11-24T12:08:24.673Z,45.15
2022-11-24T12:10:59.565Z,44.25
2022-11-24T12:13:40.916Z,44.55
2022-11-24T12:16:15.533Z,44.12
2022-11-24T12:18:58.625Z,43.60
2022-11-24T12:21:30.905Z,41.92
2022-11-24T12:24:07.608Z,42.96
2022-11-24T12:26:40.575Z,43.73
2022-11-24T12:29:26.302Z,41.95
2022-11-24T12:31:58.935Z,40.98
2022-11-24T12:34:39.564Z,41.61
2022-11-24T12:37:19.690Z,46.19
2022-11-24T12:39:53.735Z,47.20
2022-11-24T12:42:30.361Z,48.66
2022-11-24T12:45:13.067Z,51.28
2022-11-24T12:47:50.734Z,53.17
2022-11-24T12:50:21.805Z,55.00
2022-11-24T12:52:58.443Z,57.70
2022-11-24T12:55:28.124Z,59.55
2022-11-24T12:57:59.946Z,60.74
2022-11-24T13:00:32.315Z,61.42
2022-11-24T13:03:20.628Z,61.38
2022-11-24T13:05:54.499Z,57.95
2022-11-24T13:08:23.292Z,53.32
2022-11-24T13:10:56.540Z,48.80
2022-11-24T13:13:29.085Z,46.45
2022-11-24T13:16:36.248Z,43.72
2022-11-24T13:19:10.702Z,41.38
2022-11-24T13:22:02.508Z,40.93
2022-11-24T13:24:33.670Z,41.99
2022-11-24T13:27:40.962Z,44.61
2022-11-24T13:30:50.941Z,48.45
2022-11-24T13:33:34.507Z,51.83
2022-11-24T13:36:36.041Z,53.96
2022-11-24T13:39:20.165Z,56.14
2022-11-24T13:42:09.353Z,58.46
2022-11-24T13:44:47.991Z,59.62
2022-11-24T13:47:42.886Z,61.39
2022-11-24T13:50:23.233Z,60.97
2022-11-24T13:52:57.946Z,61.67
2022-11-24T13:55:30.979Z,59.54
2022-11-24T13:58:20.278Z,57.38
2022-11-24T14:01:04.724Z,56.47
2022-11-24T14:03:35.502Z,56.91
2022-11-24T14:06:04.565Z,56.69
2022-11-24T14:08:34.191Z,54.15
2022-11-24T14:11:05.227Z,52.28
2022-11-24T14:13:34.350Z,48.99
2022-11-24T14:16:05.088Z,47.40
2022-11-24T14:18:33.726Z,45.41
2022-11-24T14:21:03.629Z,43.66
2022-11-24T14:23:32.406Z,43.71
2022-11-24T14:26:00.578Z,44.14
2022-11-24T14:28:30.280Z,46.09
2022-11-24T14:31:08.875Z,47.97
2022-11-24T14:33:37.063Z,48.35
2022-11-24T14:36:06.201Z,47.41
2022-11-24T14:38:34.850Z,47.01
2022-11-24T14:41:16.402Z,47.59
2022-11-24T14:43:45.706Z,47.96
2022-11-24T14:46:19.885Z,49.84
2022-11-24T14:48:49.481Z,51.26
2022-11-24T14:51:22.369Z,52.50
2022-11-24T14:53:52.533Z,53.43
2022-11-24T14:56:26.360Z,54.24
2022-11-24T14:58:56.914Z,54.75
2022-11-24T15:01:32.505Z,55.07
2022-11-24T15:04:32.826Z,55.89
2022-11-24T15:07:15.319Z,56.88
2022-11-24T15:09:51.443Z,57.82
2022-11-24T15:12:28.525Z,58.54
2022-11-24T15:14:59.197Z,59.54
2022-11-24T15:17:29.216Z,60.34
2022-11-24T15:19:59.755Z,60.68
2022-11-24T15:22:35.436Z,61.22
2022-11-24T15:25:03.976Z,61.19
2022-11-24T15:27:32.109Z,62.10
2022-11-24T15:30:01.318Z,61.89
2022-11-24T15:32:29.637Z,62.18
2022-11-24T15:34:57.539Z,62.98
2022-11-24T15:37:28.860Z,62.56
2022-11-24T15:40:00.737Z,64.15
2022-11-24T15:42:28.909Z,65.55
2022-11-24T15:44:56.785Z,66.61
2022-11-24T15:47:26.283Z,67.66
2022-11-24T15:49:54.185Z,67.94
2022-11-24T15:52:22.430Z,68.33
2022-11-24T15:54:53.662Z,68.75
2022-11-24T15:57:21.884Z,68.76
2022-11-24T15:59:50.032Z,69.35
2022-11-24T16:02:19.356Z,68.90
2022-11-24T16:04:48.672Z,68.54
2022-11-24T16:07:16.906Z,69.11
2022-11-24T16:09:44.967Z,68.60
2022-11-24T16:12:13.145Z,69.31
2022-11-24T16:14:41.128Z,69.71
2022-11-24T16:17:09.353Z,69.88
2022-11-24T16:19:41.656Z,70.13
2022-11-24T16:22:11.589Z,70.25
2022-11-24T16:24:39.530Z,70.56
2022-11-24T16:27:07.728Z,72.06
2022-11-24T16:29:38.535Z,72.08
2022-11-24T16:32:07.299Z,71.88
2022-11-24T16:34:35.436Z,71.61
2022-11-24T16:37:04.124Z,72.28
2022-11-24T16:39:33.732Z,71.90
2022-11-24T16:42:01.949Z,72.36
2022-11-24T16:44:30.063Z,71.87
2022-11-24T16:46:58.326Z,72.58
2022-11-24T16:49:26.282Z,73.21
2022-11-24T16:51:54.681Z,73.06
2022-11-24T16:54:22.722Z,72.72
2022-11-24T16:56:52.312Z,72.41
2022-11-24T16:59:20.186Z,72.66
2022-11-24T17:01:50.501Z,72.77
2022-11-24T17:04:18.856Z,72.94
2022-11-24T17:06:47.217Z,73.14
2022-11-24T17:09:15.213Z,74.09
2022-11-24T17:11:43.408Z,74.36
2022-11-24T17:14:12.936Z,74.51
2022-11-24T17:16:41.170Z,74.45
2022-11-24T17:19:09.319Z,74.33
2022-11-24T17:21:37.659Z,74.60
2022-11-24T17:24:06.396Z,74.30
2022-11-24T17:26:35.173Z,74.46
2022-11-24T17:29:03.283Z,74.39
2022-11-24T17:31:35.723Z,74.83
2022-11-24T17:34:05.577Z,74.83
2022-11-24T17:36:34.876Z,74.83
2022-11-24T17:39:04.943Z,74.83
2022-11-24T17:41:33.894Z,75.12
2022-11-24T17:44:01.849Z,75.25
2022-11-24T17:46:31.615Z,75.41
2022-11-24T17:49:01.028Z,75.53
2022-11-24T17:51:29.308Z,75.54
2022-11-24T17:54:05.976Z,75.68
2022-11-24T17:56:48.245Z,75.60
2022-11-24T17:59:16.711Z,75.37
2022-11-24T18:01:44.935Z,75.40
2022-11-24T18:04:14.507Z,75.68
2022-11-24T18:06:42.739Z,76.17
2022-11-24T18:09:10.877Z,76.58
2022-11-24T18:11:39.140Z,76.18
2022-11-24T18:14:07.050Z,76.40
2022-11-24T18:16:35.665Z,76.52
2022-11-24T18:19:09.959Z,76.70
2022-11-24T18:21:41.125Z,76.72
2022-11-24T18:24:09.790Z,76.63
2022-11-24T18:26:37.990Z,76.53
2022-11-24T18:29:06.516Z,76.83
2022-11-24T18:31:35.798Z,76.72
2022-11-24T18:34:05.136Z,77.07
2022-11-24T18:36:33.523Z,77.13
2022-11-24T18:39:03.223Z,77.33
2022-11-24T18:41:31.736Z,77.39
2022-11-24T18:44:02.139Z,77.52
2022-11-24T18:46:30.249Z,77.76
2022-11-24T18:48:58.419Z,77.47
2022-11-24T18:51:27.146Z,77.85
2022-11-24T18:53:57.782Z,77.71
2022-11-24T18:56:27.598Z,77.94
2022-11-24T18:58:57.117Z,77.84
2022-11-24T19:01:26.519Z,78.04
2022-11-24T19:03:56.372Z,78.10
2022-11-24T19:06:28.489Z,77.89
2022-11-24T19:08:57.079Z,78.11
2022-11-24T19:11:28.111Z,78.01
2022-11-24T19:13:56.912Z,77.86
2022-11-24T19:16:25.557Z,77.54
2022-11-24T19:18:57.124Z,77.48
2022-11-24T19:21:25.067Z,77.56
2022-11-24T19:23:53.808Z,77.45
2022-11-24T19:26:21.905Z,76.83
2022-11-24T19:28:51.524Z,76.76
2022-11-24T19:31:20.203Z,76.45
2022-11-24T19:33:48.516Z,76.45
2022-11-24T19:36:18.877Z,76.30
2022-11-24T19:38:50.864Z,76.44
2022-11-24T19:41:20.368Z,76.62
2022-11-24T19:43:49.077Z,76.55
2022-11-24T19:46:20.137Z,76.28
2022-11-24T19:48:50.877Z,76.37
2022-11-24T19:51:21.307Z,76.37
2022-11-24T19:53:49.551Z,76.85
2022-11-24T19:56:18.733Z,77.11
2022-11-24T19:58:47.951Z,77.03
2022-11-24T20:01:18.965Z,77.04
2022-11-24T20:03:49.305Z,76.79
2022-11-24T20:06:17.406Z,76.75
2022-11-24T20:08:45.598Z,76.78
2022-11-24T20:11:14.861Z,76.91
2022-11-24T20:13:44.763Z,77.11
2022-11-24T20:16:14.788Z,77.40
2022-11-24T20:18:46.058Z,77.58
2022-11-24T20:21:15.523Z,77.28
2022-11-24T20:23:44.066Z,77.30
2022-11-24T20:26:13.669Z,77.41
2022-11-24T20:28:42.426Z,76.92
2022-11-24T20:31:12.147Z,77.07
2022-11-24T20:33:40.658Z,76.81
2022-11-24T20:36:11.521Z,77.27
2022-11-24T20:38:40.446Z,77.63
2022-11-24T20:41:10.351Z,77.78
2022-11-24T20:43:39.421Z,78.31
2022-11-24T20:46:09.528Z,78.52
2022-11-24T20:48:38.429Z,79.03
2022-11-24T20:51:07.929Z,79.70
2022-11-24T20:53:39.055Z,79.25
2022-11-24T20:56:09.110Z,80.34
2022-11-24T20:58:38.621Z,80.59
2022-11-24T21:01:08.045Z,80.49
2022-11-24T21:03:42.583Z,80.73
2022-11-24T21:06:12.120Z,80.57
2022-11-24T21:08:43.109Z,81.11
2022-11-24T21:11:12.654Z,81.07
2022-11-24T21:13:42.441Z,81.50
2022-11-24T21:16:14.404Z,81.29
2022-11-24T21:18:42.797Z,81.40
2022-11-24T21:21:10.842Z,81.20
2022-11-24T21:23:40.769Z,81.45
2022-11-24T21:26:16.301Z,81.75
2022-11-24T21:28:46.993Z,81.65
2022-11-24T21:31:17.334Z,81.75
2022-11-24T21:33:46.956Z,82.20
2022-11-24T21:36:16.173Z,82.04
2022-11-24T21:38:50.923Z,82.55
2022-11-24T21:41:19.328Z,82.51
2022-11-24T21:43:47.877Z,83.19
2022-11-24T21:46:16.591Z,83.34
2022-11-24T21:48:45.476Z,83.45
2022-11-24T21:51:16.001Z,84.18
2022-11-24T21:53:46.925Z,83.93
2022-11-24T21:56:16.922Z,83.66
2022-11-24T21:58:48.166Z,83.21
2022-11-24T22:01:17.903Z,83.59
2022-11-24T22:03:46.705Z,83.62
2022-11-24T22:06:15.359Z,83.42
2022-11-24T22:08:43.952Z,83.50
2022-11-24T22:11:14.720Z,83.61
2022-11-24T22:13:44.260Z,83.37
2022-11-24T22:16:13.831Z,83.51
2022-11-24T22:18:43.514Z,83.23
2022-11-24T22:21:13.354Z,83.19
2022-11-24T22:23:41.638Z,83.42
2022-11-24T22:26:14.784Z,83.20
2022-11-24T22:28:43.877Z,83.25
2022-11-24T22:31:13.492Z,83.34
2022-11-24T22:33:43.762Z,83.54
2022-11-24T22:36:12.503Z,83.35
2022-11-24T22:38:41.635Z,83.37
2022-11-24T22:41:11.433Z,83.37
2022-11-24T22:43:43.012Z,82.83
2022-11-24T22:46:12.850Z,83.23
2022-11-24T22:48:41.555Z,83.20
2022-11-24T22:51:11.295Z,83.43
2022-11-24T22:53:39.762Z,83.53
2022-11-24T22:56:10.395Z,83.27
2022-11-24T22:58:52.189Z,83.48
2022-11-24T23:01:21.622Z,83.65
2022-11-24T23:03:50.305Z,83.52
2022-11-24T23:06:20.258Z,83.40
2022-11-24T23:08:50.703Z,83.58
2022-11-24T23:11:24.674Z,83.71
2022-11-24T23:14:00.866Z,84.46
2022-11-24T23:16:29.447Z,84.81
2022-11-24T23:18:58.280Z,84.78
2022-11-24T23:21:27.727Z,84.95
2022-11-24T23:23:56.484Z,84.60
2022-11-24T23:26:25.865Z,84.92
2022-11-24T23:28:54.063Z,85.15
2022-11-24T23:31:27.334Z,85.31
2022-11-24T23:33:55.656Z,85.50
2022-11-24T23:36:23.713Z,85.66
2022-11-24T23:38:52.214Z,85.50
2022-11-24T23:41:21.888Z,85.33
2022-11-24T23:43:50.704Z,85.10
2022-11-24T23:46:20.811Z,84.80
2022-11-24T23:48:51.701Z,84.88
2022-11-24T23:51:21.136Z,84.93
2022-11-24T23:53:50.448Z,84.67
2022-11-24T23:56:21.177Z,84.72
2022-11-24T23:58:49.744Z,84.98
